Valley Falls, Rhode Island
Current Conditions -  °F | °C
As of 6:15 PM on Thursday 18 Dec 2014 (Local Time) from KSFZ Reporting Station
Overcast Overcast  
Wind Chill: 31°   Ceiling: 3100
Heat Index: 37°   Visibility: 10mi
Dew Point: 21°   Wind: 9mph
Humidity: 52%   Direction: 290°WNW
Pressure: 29.85"   Gusts: NA
Location:  41.91°N, 71.39°W
Report Text: KSFZ 182315Z 29008KT 10SM OVC031 03/M06 A2985 RMK AO1
Loading
Personal Weather Stations






























Interactive Weather Map New forecast layout! Learn more

10-Day Weather Forecast

Advertisements
Track Severe Weather on mobile